sensor_id;sensor_type;location;lat;lon;timestamp;pressure;altitude;pressure_sealevel;temperature;humidity
49813;BME280;35706;52.100;5.056;2023-02-03T00:00:46;102501.06;;;8.69;98.20
49813;BME280;35706;52.100;5.056;2023-02-03T00:01:46;102503.69;;;8.69;97.84
49813;BME280;35706;52.100;5.056;2023-02-03T00:02:49;102498.63;;;8.66;98.13
49813;BME280;35706;52.100;5.056;2023-02-03T00:03:50;102498.63;;;8.66;98.21
49813;BME280;35706;52.100;5.056;2023-02-03T00:04:50;102509.88;;;8.68;98.10
49813;BME280;35706;52.100;5.056;2023-02-03T00:05:50;102511.63;;;8.67;97.97
49813;BME280;35706;52.100;5.056;2023-02-03T00:06:50;102510.78;;;8.67;98.20
49813;BME280;35706;52.100;5.056;2023-02-03T00:07:51;102506.38;;;8.67;98.01
49813;BME280;35706;52.100;5.056;2023-02-03T00:08:54;102512.47;;;8.68;97.66
49813;BME280;35706;52.100;5.056;2023-02-03T00:09:56;102526.50;;;8.67;97.79
49813;BME280;35706;52.100;5.056;2023-02-03T00:10:57;102516.84;;;8.67;97.79
49813;BME280;35706;52.100;5.056;2023-02-03T00:12:00;102515.09;;;8.68;97.71
49813;BME280;35706;52.100;5.056;2023-02-03T00:13:01;102512.56;;;8.66;97.93
49813;BME280;35706;52.100;5.056;2023-02-03T00:14:02;102520.34;;;8.68;97.68
49813;BME280;35706;52.100;5.056;2023-02-03T00:15:04;102522.88;;;8.69;97.78
49813;BME280;35706;52.100;5.056;2023-02-03T00:16:05;102520.34;;;8.68;97.57
49813;BME280;35706;52.100;5.056;2023-02-03T00:17:05;102516.03;;;8.67;97.54
49813;BME280;35706;52.100;5.056;2023-02-03T00:18:06;102515.09;;;8.68;97.61
49813;BME280;35706;52.100;5.056;2023-02-03T00:19:06;102514.25;;;8.67;97.67
49813;BME280;35706;52.100;5.056;2023-02-03T00:20:07;102520.34;;;8.68;97.82
49813;BME280;35706;52.100;5.056;2023-02-03T00:21:07;102513.31;;;8.68;97.75
49813;BME280;35706;52.100;5.056;2023-02-03T00:22:07;102515.25;;;8.65;97.75
49813;BME280;35706;52.100;5.056;2023-02-03T00:23:09;102515.19;;;8.66;97.64
49813;BME280;35706;52.100;5.056;2023-02-03T00:24:10;102511.72;;;8.66;97.59
49813;BME280;35706;52.100;5.056;2023-02-03T00:25:10;102526.69;;;8.64;97.68
49813;BME280;35706;52.100;5.056;2023-02-03T00:26:13;102510.00;;;8.65;97.70
49813;BME280;35706;52.100;5.056;2023-02-03T00:27:14;102505.72;;;8.64;97.87
49813;BME280;35706;52.100;5.056;2023-02-03T00:28:14;102516.09;;;8.65;97.69
49813;BME280;35706;52.100;5.056;2023-02-03T00:29:14;102516.19;;;8.64;98.00
49813;BME280;35706;52.100;5.056;2023-02-03T00:30:15;102517.03;;;8.64;97.85
49813;BME280;35706;52.100;5.056;2023-02-03T00:31:21;102518.81;;;8.64;97.64
49813;BME280;35706;52.100;5.056;2023-02-03T00:32:21;102516.28;;;8.62;97.95
49813;BME280;35706;52.100;5.056;2023-02-03T00:33:22;102516.34;;;8.61;97.87
49813;BME280;35706;52.100;5.056;2023-02-03T00:34:22;102532.84;;;8.63;97.68
49813;BME280;35706;52.100;5.056;2023-02-03T00:35:22;102531.16;;;8.62;98.01
49813;BME280;35706;52.100;5.056;2023-02-03T00:36:26;102526.25;;;8.55;98.13
49813;BME280;35706;52.100;5.056;2023-02-03T00:37:26;102534.00;;;8.57;98.19
49813;BME280;35706;52.100;5.056;2023-02-03T00:38:27;102518.13;;;8.60;98.02
49813;BME280;35706;52.100;5.056;2023-02-03T00:39:27;102520.91;;;8.57;98.13
49813;BME280;35706;52.100;5.056;2023-02-03T00:40:27;102514.75;;;8.58;98.13
49813;BME280;35706;52.100;5.056;2023-02-03T00:41:29;102524.28;;;8.59;98.17
49813;BME280;35706;52.100;5.056;2023-02-03T00:42:33;102531.31;;;8.59;97.93
49813;BME280;35706;52.100;5.056;2023-02-03T00:43:34;102526.25;;;8.55;98.20
49813;BME280;35706;52.100;5.056;2023-02-03T00:44:35;102518.97;;;8.61;97.79
49813;BME280;35706;52.100;5.056;2023-02-03T00:45:35;102540.00;;;8.59;97.80
49813;BME280;35706;52.100;5.056;2023-02-03T00:46:35;102534.75;;;8.59;98.04
49813;BME280;35706;52.100;5.056;2023-02-03T00:47:36;102520.75;;;8.60;97.98
49813;BME280;35706;52.100;5.056;2023-02-03T00:48:36;102534.88;;;8.58;97.97
49813;BME280;35706;52.100;5.056;2023-02-03T00:49:36;102526.25;;;8.55;97.86
49813;BME280;35706;52.100;5.056;2023-02-03T00:50:37;102537.75;;;8.53;97.82
49813;BME280;35706;52.100;5.056;2023-02-03T00:51:37;102526.31;;;8.54;97.75
49813;BME280;35706;52.100;5.056;2023-02-03T00:52:37;102528.75;;;8.57;97.91
49813;BME280;35706;52.100;5.056;2023-02-03T00:53:37;102512.25;;;8.55;97.86
49813;BME280;35706;52.100;5.056;2023-02-03T00:54:38;102511.28;;;8.58;97.67
49813;BME280;35706;52.100;5.056;2023-02-03T00:55:38;102498.06;;;8.59;97.18
49813;BME280;35706;52.100;5.056;2023-02-03T00:56:39;102503.25;;;8.61;97.17
49813;BME280;35706;52.100;5.056;2023-02-03T00:57:39;102509.50;;;8.58;97.31
49813;BME280;35706;52.100;5.056;2023-02-03T00:58:40;102505.09;;;8.59;97.25
49813;BME280;35706;52.100;5.056;2023-02-03T00:59:40;102509.50;;;8.58;97.27
49813;BME280;35706;52.100;5.056;2023-02-03T01:00:40;102508.66;;;8.58;96.99
49813;BME280;35706;52.100;5.056;2023-02-03T01:01:41;102512.03;;;8.60;96.90
49813;BME280;35706;52.100;5.056;2023-02-03T01:02:41;102517.19;;;8.61;96.91
49813;BME280;35706;52.100;5.056;2023-02-03T01:03:41;102505.09;;;8.59;96.78
49813;BME280;35706;52.100;5.056;2023-02-03T01:04:42;102508.34;;;8.64;96.54
49813;BME280;35706;52.100;5.056;2023-02-03T01:05:43;102509.31;;;8.61;96.35
49813;BME280;35706;52.100;5.056;2023-02-03T01:06:43;102505.16;;;8.57;96.75
49813;BME280;35706;52.100;5.056;2023-02-03T01:07:43;102500.78;;;8.58;96.64
49813;BME280;35706;52.100;5.056;2023-02-03T01:08:44;102504.19;;;8.60;96.74
49813;BME280;35706;52.100;5.056;2023-02-03T01:09:44;102509.25;;;8.63;96.52
49813;BME280;35706;52.100;5.056;2023-02-03T01:10:44;102509.31;;;8.61;96.69
49813;BME280;35706;52.100;5.056;2023-02-03T01:11:45;102507.47;;;8.63;96.58
49813;BME280;35706;52.100;5.056;2023-02-03T01:12:45;102512.88;;;8.60;96.75
49813;BME280;35706;52.100;5.056;2023-02-03T01:13:45;102505.84;;;8.61;96.36
49813;BME280;35706;52.100;5.056;2023-02-03T01:14:46;102495.56;;;8.58;96.51
49813;BME280;35706;52.100;5.056;2023-02-03T01:15:46;102509.44;;;8.60;96.40
49813;BME280;35706;52.100;5.056;2023-02-03T01:16:47;102510.19;;;8.62;96.46
49813;BME280;35706;52.100;5.056;2023-02-03T01:17:47;102506.03;;;8.58;96.70
49813;BME280;35706;52.100;5.056;2023-02-03T01:18:49;102506.03;;;8.58;96.75
49813;BME280;35706;52.100;5.056;2023-02-03T01:19:51;102509.44;;;8.60;96.48
49813;BME280;35706;52.100;5.056;2023-02-03T01:20:51;102505.03;;;8.60;96.46
49813;BME280;35706;52.100;5.056;2023-02-03T01:21:51;102500.78;;;8.58;96.70
49813;BME280;35706;52.100;5.056;2023-02-03T01:22:52;102493.91;;;8.55;96.84
49813;BME280;35706;52.100;5.056;2023-02-03T01:23:53;102496.47;;;8.56;96.91
49813;BME280;35706;52.100;5.056;2023-02-03T01:24:53;102503.56;;;8.54;96.86
49813;BME280;35706;52.100;5.056;2023-02-03T01:25:53;102500.94;;;8.54;97.22
49813;BME280;35706;52.100;5.056;2023-02-03T01:26:54;102501.72;;;8.56;97.01
49813;BME280;35706;52.100;5.056;2023-02-03T01:27:54;102499.16;;;8.55;97.04
49813;BME280;35706;52.100;5.056;2023-02-03T01:28:57;102487.00;;;8.54;97.11
49813;BME280;35706;52.100;5.056;2023-02-03T01:29:58;102491.22;;;8.56;97.23
49813;BME280;35706;52.100;5.056;2023-02-03T01:31:13;102482.78;;;8.51;97.35
49813;BME280;35706;52.100;5.056;2023-02-03T01:32:14;102476.69;;;8.51;97.46
49813;BME280;35706;52.100;5.056;2023-02-03T01:33:15;102477.69;;;8.48;97.34
49813;BME280;35706;52.100;5.056;2023-02-03T01:34:15;102473.22;;;8.50;97.55
49813;BME280;35706;52.100;5.056;2023-02-03T01:35:16;102472.44;;;8.48;97.71
49813;BME280;35706;52.100;5.056;2023-02-03T01:36:17;102468.16;;;8.47;97.74
49813;BME280;35706;52.100;5.056;2023-02-03T01:37:17;102465.59;;;8.46;97.98
49813;BME280;35706;52.100;5.056;2023-02-03T01:38:18;102459.59;;;8.44;97.83
49813;BME280;35706;52.100;5.056;2023-02-03T01:39:18;102466.44;;;8.46;97.82
49813;BME280;35706;52.100;5.056;2023-02-03T01:40:18;102465.53;;;8.47;97.78
49813;BME280;35706;52.100;5.056;2023-02-03T01:41:22;102467.19;;;8.48;97.73
49813;BME280;35706;52.100;5.056;2023-02-03T01:42:23;102464.75;;;8.45;97.89
49813;BME280;35706;52.100;5.056;2023-02-03T01:43:45;102462.84;;;8.49;97.66
49813;BME280;35706;52.100;5.056;2023-02-03T01:44:47;102458.44;;;8.49;97.44
49813;BME280;35706;52.100;5.056;2023-02-03T01:45:50;102464.59;;;8.48;97.22
49813;BME280;35706;52.100;5.056;2023-02-03T01:46:51;102467.97;;;8.50;97.36
49813;BME280;35706;52.100;5.056;2023-02-03T01:47:54;102470.59;;;8.50;97.41
49813;BME280;35706;52.100;5.056;2023-02-03T01:51:10;102470.34;;;8.55;96.65
49813;BME280;35706;52.100;5.056;2023-02-03T01:52:11;102480.81;;;8.55;96.73
49813;BME280;35706;52.100;5.056;2023-02-03T01:53:14;102478.97;;;8.57;96.80
49813;BME280;35706;52.100;5.056;2023-02-03T01:54:19;102476.59;;;8.52;96.80
49813;BME280;35706;52.100;5.056;2023-02-03T01:55:27;102470.34;;;8.55;96.59
49813;BME280;35706;52.100;5.056;2023-02-03T01:56:31;102481.84;;;8.52;96.68
49813;BME280;35706;52.100;5.056;2023-02-03T01:57:41;102475.69;;;8.53;96.65
49813;BME280;35706;52.100;5.056;2023-02-03T01:58:45;102474.72;;;8.54;96.43
49813;BME280;35706;52.100;5.056;2023-02-03T01:59:47;102475.44;;;8.58;96.32
49813;BME280;35706;52.100;5.056;2023-02-03T02:00:48;102468.41;;;8.59;96.46
49813;BME280;35706;52.100;5.056;2023-02-03T02:01:49;102466.72;;;8.58;96.32
49813;BME280;35706;52.100;5.056;2023-02-03T02:02:50;102464.19;;;8.56;96.21
49813;BME280;35706;52.100;5.056;2023-02-03T02:03:53;102462.25;;;8.60;95.72
49813;BME280;35706;52.100;5.056;2023-02-03T02:05:02;102452.84;;;8.55;95.88
49813;BME280;35706;52.100;5.056;2023-02-03T02:06:06;102447.63;;;8.55;96.02
49813;BME280;35706;52.100;5.056;2023-02-03T02:07:07;102449.22;;;8.58;95.75
49813;BME280;35706;52.100;5.056;2023-02-03T02:08:09;102450.25;;;8.55;95.73
49813;BME280;35706;52.100;5.056;2023-02-03T02:09:11;102449.97;;;8.60;95.41
49813;BME280;35706;52.100;5.056;2023-02-03T02:10:11;102448.38;;;8.58;95.46
49813;BME280;35706;52.100;5.056;2023-02-03T02:11:12;102455.22;;;8.60;95.35
49813;BME280;35706;52.100;5.056;2023-02-03T02:12:12;102444.66;;;8.62;95.03
49813;BME280;35706;52.100;5.056;2023-02-03T02:13:13;102442.88;;;8.62;94.58
49813;BME280;35706;52.100;5.056;2023-02-03T02:14:14;102437.44;;;8.65;94.69
49813;BME280;35706;52.100;5.056;2023-02-03T02:15:15;102429.44;;;8.68;94.09
49813;BME280;35706;52.100;5.056;2023-02-03T02:16:21;102432.13;;;8.67;93.73
49813;BME280;35706;52.100;5.056;2023-02-03T02:17:38;102428.50;;;8.69;93.58
49813;BME280;35706;52.100;5.056;2023-02-03T02:19:11;102424.84;;;8.72;93.03
49813;BME280;35706;52.100;5.056;2023-02-03T02:23:13;102438.56;;;8.77;91.97
49813;BME280;35706;52.100;5.056;2023-02-03T02:26:29;102441.88;;;8.81;91.55
49813;BME280;35706;52.100;5.056;2023-02-03T02:30:40;102453.44;;;8.92;90.21
49813;BME280;35706;52.100;5.056;2023-02-03T02:35:57;102455.72;;;8.99;89.64
49813;BME280;35706;52.100;5.056;2023-02-03T02:39:37;102471.88;;;9.07;88.56
49813;BME280;35706;52.100;5.056;2023-02-03T02:41:49;102470.91;;;9.08;88.73
49813;BME280;35706;52.100;5.056;2023-02-03T02:44:33;102459.78;;;9.04;89.01
49813;BME280;35706;52.100;5.056;2023-02-03T02:45:45;102465.69;;;9.08;88.96
49813;BME280;35706;52.100;5.056;2023-02-03T02:46:49;102458.69;;;9.08;88.73
49813;BME280;35706;52.100;5.056;2023-02-03T02:48:00;102450.69;;;9.10;88.92
49813;BME280;35706;52.100;5.056;2023-02-03T02:50:22;102439.28;;;9.11;88.29
49813;BME280;35706;52.100;5.056;2023-02-03T02:51:24;102448.69;;;9.15;88.10
49813;BME280;35706;52.100;5.056;2023-02-03T02:52:29;102458.34;;;9.14;88.06
49813;BME280;35706;52.100;5.056;2023-02-03T02:53:34;102452.97;;;9.16;88.12
49813;BME280;35706;52.100;5.056;2023-02-03T02:54:39;102444.19;;;9.17;88.13
49813;BME280;35706;52.100;5.056;2023-02-03T02:55:42;102434.53;;;9.17;88.30
49813;BME280;35706;52.100;5.056;2023-02-03T02:56:47;102450.19;;;9.19;88.03
49813;BME280;35706;52.100;5.056;2023-02-03T02:57:50;102442.41;;;9.17;88.00
49813;BME280;35706;52.100;5.056;2023-02-03T02:58:53;102445.72;;;9.21;87.89
49813;BME280;35706;52.100;5.056;2023-02-03T02:59:56;102443.09;;;9.21;88.04
49813;BME280;35706;52.100;5.056;2023-02-03T03:00:57;102442.22;;;9.21;88.10
49813;BME280;35706;52.100;5.056;2023-02-03T03:01:57;102435.47;;;9.16;88.12
49813;BME280;35706;52.100;5.056;2023-02-03T03:03:12;102432.66;;;9.20;88.06
49813;BME280;35706;52.100;5.056;2023-02-03T03:04:16;102419.56;;;9.20;88.21
49813;BME280;35706;52.100;5.056;2023-02-03T03:05:18;102423.00;;;9.20;88.22
49813;BME280;35706;52.100;5.056;2023-02-03T03:06:23;102422.25;;;9.18;88.28
49813;BME280;35706;52.100;5.056;2023-02-03T03:07:26;102421.84;;;9.10;88.91
49813;BME280;35706;52.100;5.056;2023-02-03T03:08:37;102422.59;;;9.12;89.15
49813;BME280;35706;52.100;5.056;2023-02-03T03:09:55;102416.88;;;9.05;89.66
49813;BME280;35706;52.100;5.056;2023-02-03T03:10:56;102429.34;;;9.02;90.09
49813;BME280;35706;52.100;5.056;2023-02-03T03:12:04;102429.50;;;8.99;90.36
49813;BME280;35706;52.100;5.056;2023-02-03T03:13:10;102439.22;;;8.96;90.60
49813;BME280;35706;52.100;5.056;2023-02-03T03:14:15;102422.91;;;8.91;90.91
49813;BME280;35706;52.100;5.056;2023-02-03T03:15:20;102432.53;;;8.91;91.13
49813;BME280;35706;52.100;5.056;2023-02-03T03:16:25;102426.28;;;8.93;90.95
49813;BME280;35706;52.100;5.056;2023-02-03T03:17:32;102421.22;;;8.90;91.54
49813;BME280;35706;52.100;5.056;2023-02-03T03:18:43;102413.59;;;8.86;91.66
49813;BME280;35706;52.100;5.056;2023-02-03T03:19:49;102412.75;;;8.85;91.77
49813;BME280;35706;52.100;5.056;2023-02-03T03:20:52;102425.88;;;8.85;91.69
49813;BME280;35706;52.100;5.056;2023-02-03T03:21:59;102424.78;;;8.89;91.62
49813;BME280;35706;52.100;5.056;2023-02-03T03:23:12;102436.19;;;8.88;91.69
49813;BME280;35706;52.100;5.056;2023-02-03T03:24:17;102431.13;;;8.85;91.94
49813;BME280;35706;52.100;5.056;2023-02-03T03:25:24;102434.50;;;8.87;91.53
49813;BME280;35706;52.100;5.056;2023-02-03T03:26:49;102420.38;;;8.90;91.53
49813;BME280;35706;52.100;5.056;2023-02-03T03:27:55;102419.53;;;8.89;91.78
49813;BME280;35706;52.100;5.056;2023-02-03T03:29:15;102426.38;;;8.92;91.68
49813;BME280;35706;52.100;5.056;2023-02-03T03:30:39;102433.41;;;8.91;91.45
49813;BME280;35706;52.100;5.056;2023-02-03T03:31:40;102429.00;;;8.92;91.46
49813;BME280;35706;52.100;5.056;2023-02-03T03:32:40;102423.75;;;8.92;91.52
49813;BME280;35706;52.100;5.056;2023-02-03T03:33:41;102420.38;;;8.90;91.56
49813;BME280;35706;52.100;5.056;2023-02-03T03:34:42;102431.44;;;8.95;91.21
49813;BME280;35706;52.100;5.056;2023-02-03T03:35:52;102423.75;;;8.92;91.48
49813;BME280;35706;52.100;5.056;2023-02-03T03:38:35;102424.44;;;8.95;90.84
49813;BME280;35706;52.100;5.056;2023-02-03T03:40:52;102432.53;;;9.07;89.55
49813;BME280;35706;52.100;5.056;2023-02-03T03:42:11;102438.34;;;9.12;89.07
49813;BME280;35706;52.100;5.056;2023-02-03T03:43:23;102427.97;;;9.10;89.06
49813;BME280;35706;52.100;5.056;2023-02-03T03:44:36;102437.22;;;9.16;88.25
49813;BME280;35706;52.100;5.056;2023-02-03T03:45:46;102435.47;;;9.16;88.58
49813;BME280;35706;52.100;5.056;2023-02-03T03:46:53;102427.63;;;9.16;88.38
49813;BME280;35706;52.100;5.056;2023-02-03T03:48:00;102427.63;;;9.16;87.99
49813;BME280;35706;52.100;5.056;2023-02-03T03:49:04;102442.88;;;9.24;87.74
49813;BME280;35706;52.100;5.056;2023-02-03T03:50:10;102436.81;;;9.24;87.60
49813;BME280;35706;52.100;5.056;2023-02-03T03:51:23;102437.72;;;9.23;87.59
49813;BME280;35706;52.100;5.056;2023-02-03T03:52:29;102440.19;;;9.26;87.34
49813;BME280;35706;52.100;5.056;2023-02-03T03:53:33;102439.34;;;9.25;87.63
49813;BME280;35706;52.100;5.056;2023-02-03T03:54:37;102441.78;;;9.28;87.37
49813;BME280;35706;52.100;5.056;2023-02-03T03:55:40;102453.03;;;9.30;87.22
49813;BME280;35706;52.100;5.056;2023-02-03T03:56:57;102443.50;;;9.29;87.29
49813;BME280;35706;52.100;5.056;2023-02-03T03:58:03;102461.84;;;9.29;87.40
49813;BME280;35706;52.100;5.056;2023-02-03T03:59:06;102467.00;;;9.31;87.20
49813;BME280;35706;52.100;5.056;2023-02-03T04:00:09;102457.38;;;9.31;87.04
49813;BME280;35706;52.100;5.056;2023-02-03T04:01:14;102451.09;;;9.34;87.14
49813;BME280;35706;52.100;5.056;2023-02-03T04:02:16;102445.00;;;9.33;87.05
49813;BME280;35706;52.100;5.056;2023-02-03T04:03:28;102444.31;;;9.30;87.30
49813;BME280;35706;52.100;5.056;2023-02-03T04:04:33;102451.25;;;9.31;87.11
49813;BME280;35706;52.100;5.056;2023-02-03T04:05:36;102449.56;;;9.30;87.31
49813;BME280;35706;52.100;5.056;2023-02-03T04:06:38;102446.69;;;9.34;86.85
49813;BME280;35706;52.100;5.056;2023-02-03T04:07:41;102445.72;;;9.35;86.86
49813;BME280;35706;52.100;5.056;2023-02-03T04:08:42;102447.63;;;9.33;87.23
49813;BME280;35706;52.100;5.056;2023-02-03T04:09:42;102452.13;;;9.31;86.85
49813;BME280;35706;52.100;5.056;2023-02-03T04:10:43;102458.13;;;9.33;87.25
49813;BME280;35706;52.100;5.056;2023-02-03T04:11:43;102460.63;;;9.35;87.10
49813;BME280;35706;52.100;5.056;2023-02-03T04:13:02;102445.91;;;9.32;87.38
49813;BME280;35706;52.100;5.056;2023-02-03T04:14:05;102450.34;;;9.32;87.42
49813;BME280;35706;52.100;5.056;2023-02-03T04:15:08;102443.38;;;9.31;87.58
49813;BME280;35706;52.100;5.056;2023-02-03T04:16:08;102450.25;;;9.33;87.30
49813;BME280;35706;52.100;5.056;2023-02-03T04:17:11;102441.44;;;9.34;86.98
49813;BME280;35706;52.100;5.056;2023-02-03T04:18:13;102445.00;;;9.33;87.32
49813;BME280;35706;52.100;5.056;2023-02-03T04:19:14;102462.50;;;9.33;87.32
49813;BME280;35706;52.100;5.056;2023-02-03T04:20:14;102452.88;;;9.33;87.18
49813;BME280;35706;52.100;5.056;2023-02-03T04:21:15;102453.44;;;9.38;87.02
49813;BME280;35706;52.100;5.056;2023-02-03T04:22:15;102447.34;;;9.38;86.94
49813;BME280;35706;52.100;5.056;2023-02-03T04:23:16;102449.03;;;9.39;86.93
49813;BME280;35706;52.100;5.056;2023-02-03T04:24:16;102448.19;;;9.38;86.82
49813;BME280;35706;52.100;5.056;2023-02-03T04:25:17;102432.59;;;9.35;87.29
49813;BME280;35706;52.100;5.056;2023-02-03T04:26:17;102445.00;;;9.33;87.21
49813;BME280;35706;52.100;5.056;2023-02-03T04:27:17;102449.22;;;9.36;87.26
49813;BME280;35706;52.100;5.056;2023-02-03T04:28:17;102444.91;;;9.35;87.29
49813;BME280;35706;52.100;5.056;2023-02-03T04:29:18;102445.00;;;9.33;87.56
49813;BME280;35706;52.100;5.056;2023-02-03T04:30:18;102428.38;;;9.33;87.40
49813;BME280;35706;52.100;5.056;2023-02-03T04:31:18;102444.13;;;9.33;87.46
49813;BME280;35706;52.100;5.056;2023-02-03T04:32:19;102439.75;;;9.33;87.63
49813;BME280;35706;52.100;5.056;2023-02-03T04:33:39;102443.97;;;9.36;87.25
49813;BME280;35706;52.100;5.056;2023-02-03T04:34:39;102443.03;;;9.37;87.35
49813;BME280;35706;52.100;5.056;2023-02-03T04:35:39;102433.38;;;9.37;87.38
49813;BME280;35706;52.100;5.056;2023-02-03T04:36:40;102445.66;;;9.37;87.47
49813;BME280;35706;52.100;5.056;2023-02-03T04:37:40;102450.41;;;9.30;87.83
49813;BME280;35706;52.100;5.056;2023-02-03T04:38:40;102446.88;;;9.31;87.76
49813;BME280;35706;52.100;5.056;2023-02-03T04:39:41;102453.97;;;9.29;87.82
49813;BME280;35706;52.100;5.056;2023-02-03T04:40:41;102467.88;;;9.31;88.01
49813;BME280;35706;52.100;5.056;2023-02-03T04:41:44;102468.69;;;9.32;87.95
49813;BME280;35706;52.100;5.056;2023-02-03T04:42:44;102466.09;;;9.32;87.89
49813;BME280;35706;52.100;5.056;2023-02-03T04:43:45;102469.72;;;9.29;88.13
49813;BME280;35706;52.100;5.056;2023-02-03T04:44:45;102466.91;;;9.32;88.04
49813;BME280;35706;52.100;5.056;2023-02-03T04:45:45;102463.53;;;9.30;87.93
49813;BME280;35706;52.100;5.056;2023-02-03T04:46:45;102458.28;;;9.30;88.29
49813;BME280;35706;52.100;5.056;2023-02-03T04:47:50;102472.25;;;9.31;87.99
49813;BME280;35706;52.100;5.056;2023-02-03T04:48:51;102464.38;;;9.31;88.10
49813;BME280;35706;52.100;5.056;2023-02-03T04:49:51;102461.75;;;9.31;88.20
49813;BME280;35706;52.100;5.056;2023-02-03T04:50:52;102458.22;;;9.32;87.83
49813;BME280;35706;52.100;5.056;2023-02-03T04:51:52;102460.84;;;9.32;88.10
49813;BME280;35706;52.100;5.056;2023-02-03T04:52:52;102451.09;;;9.34;87.99
49813;BME280;35706;52.100;5.056;2023-02-03T04:53:53;102452.13;;;9.31;88.21
49813;BME280;35706;52.100;5.056;2023-02-03T04:54:53;102474.97;;;9.29;88.41
49813;BME280;35706;52.100;5.056;2023-02-03T04:55:53;102436.53;;;9.28;88.15
49813;BME280;35706;52.100;5.056;2023-02-03T04:56:53;102452.28;;;9.28;88.37
49813;BME280;35706;52.100;5.056;2023-02-03T04:57:58;102447.03;;;9.28;88.27
49813;BME280;35706;52.100;5.056;2023-02-03T04:58:58;102443.38;;;9.31;88.23
49813;BME280;35706;52.100;5.056;2023-02-03T04:59:59;102450.59;;;9.27;88.15
49813;BME280;35706;52.100;5.056;2023-02-03T05:01:07;102447.03;;;9.28;88.53
49813;BME280;35706;52.100;5.056;2023-02-03T05:02:08;102448.75;;;9.29;88.23
49813;BME280;35706;52.100;5.056;2023-02-03T05:03:11;102447.78;;;9.30;88.45
49813;BME280;35706;52.100;5.056;2023-02-03T05:04:11;102456.78;;;9.26;88.43
49813;BME280;35706;52.100;5.056;2023-02-03T05:05:11;102453.22;;;9.27;88.49
49813;BME280;35706;52.100;5.056;2023-02-03T05:06:12;102466.34;;;9.27;88.63
49813;BME280;35706;52.100;5.056;2023-02-03T05:07:12;102452.19;;;9.30;88.42
49813;BME280;35706;52.100;5.056;2023-02-03T05:08:12;102451.44;;;9.28;88.49
49813;BME280;35706;52.100;5.056;2023-02-03T05:09:13;102455.84;;;9.27;88.39
49813;BME280;35706;52.100;5.056;2023-02-03T05:10:13;102443.56;;;9.28;88.67
49813;BME280;35706;52.100;5.056;2023-02-03T05:11:14;102439.25;;;9.27;88.47
49813;BME280;35706;52.100;5.056;2023-02-03T05:12:14;102446.13;;;9.29;88.33
49813;BME280;35706;52.100;5.056;2023-02-03T05:13:14;102430.63;;;9.25;88.71
49813;BME280;35706;52.100;5.056;2023-02-03T05:14:15;102430.63;;;9.25;88.82
49813;BME280;35706;52.100;5.056;2023-02-03T05:15:15;102438.47;;;9.25;88.74
49813;BME280;35706;52.100;5.056;2023-02-03T05:16:16;102439.34;;;9.25;88.60
49813;BME280;35706;52.100;5.056;2023-02-03T05:17:16;102441.28;;;9.22;88.78
49813;BME280;35706;52.100;5.056;2023-02-03T05:18:16;102436.72;;;9.25;88.42
49813;BME280;35706;52.100;5.056;2023-02-03T05:19:17;102438.59;;;9.23;88.52
49813;BME280;35706;52.100;5.056;2023-02-03T05:20:17;102448.13;;;9.24;88.79
49813;BME280;35706;52.100;5.056;2023-02-03T05:21:17;102453.38;;;9.24;88.38
49813;BME280;35706;52.100;5.056;2023-02-03T05:22:18;102447.13;;;9.27;88.21
49813;BME280;35706;52.100;5.056;2023-02-03T05:23:18;102459.38;;;9.26;88.52
49813;BME280;35706;52.100;5.056;2023-02-03T05:24:19;102463.72;;;9.27;88.43
49813;BME280;35706;52.100;5.056;2023-02-03T05:25:20;102487.22;;;9.29;88.15
49813;BME280;35706;52.100;5.056;2023-02-03T05:26:20;102474.97;;;9.29;88.45
49813;BME280;35706;52.100;5.056;2023-02-03T05:27:20;102461.19;;;9.26;88.17
49813;BME280;35706;52.100;5.056;2023-02-03T05:28:21;102463.81;;;9.26;88.55
49813;BME280;35706;52.100;5.056;2023-02-03T05:29:21;102472.50;;;9.26;88.90
49813;BME280;35706;52.100;5.056;2023-02-03T05:30:21;102453.22;;;9.27;88.46
49813;BME280;35706;52.100;5.056;2023-02-03T05:31:21;102469.81;;;9.28;88.22
49813;BME280;35706;52.100;5.056;2023-02-03T05:32:22;102467.09;;;9.29;88.20
49813;BME280;35706;52.100;5.056;2023-02-03T05:33:22;102462.00;;;9.26;88.49
49813;BME280;35706;52.100;5.056;2023-02-03T05:34:22;102452.56;;;9.24;88.49
49813;BME280;35706;52.100;5.056;2023-02-03T05:35:23;102452.34;;;9.27;88.26
49813;BME280;35706;52.100;5.056;2023-02-03T05:36:23;102452.47;;;9.25;88.51
49813;BME280;35706;52.100;5.056;2023-02-03T05:37:23;102457.72;;;9.25;88.46
49813;BME280;35706;52.100;5.056;2023-02-03T05:38:23;102451.72;;;9.23;88.61
49813;BME280;35706;52.100;5.056;2023-02-03T05:39:24;102456.97;;;9.23;88.57
49813;BME280;35706;52.100;5.056;2023-02-03T05:40:25;102457.59;;;9.27;88.58
49813;BME280;35706;52.100;5.056;2023-02-03T05:41:44;102453.97;;;9.29;88.55
49813;BME280;35706;52.100;5.056;2023-02-03T05:42:54;102457.72;;;9.25;88.85
49813;BME280;35706;52.100;5.056;2023-02-03T05:43:54;102462.09;;;9.25;88.60
49813;BME280;35706;52.100;5.056;2023-02-03T05:44:55;102454.97;;;9.27;88.46
49813;BME280;35706;52.100;5.056;2023-02-03T05:45:59;102458.56;;;9.26;88.44
49813;BME280;35706;52.100;5.056;2023-02-03T05:46:59;102456.19;;;9.21;88.77
49813;BME280;35706;52.100;5.056;2023-02-03T05:47:59;102460.41;;;9.24;89.05
49813;BME280;35706;52.100;5.056;2023-02-03T05:49:01;102467.53;;;9.22;88.90
49813;BME280;35706;52.100;5.056;2023-02-03T05:50:02;102464.84;;;9.23;88.83
49813;BME280;35706;52.100;5.056;2023-02-03T05:51:03;102473.63;;;9.22;88.71
49813;BME280;35706;52.100;5.056;2023-02-03T05:52:03;102461.44;;;9.21;88.80
49813;BME280;35706;52.100;5.056;2023-02-03T05:53:05;102462.97;;;9.25;88.91
49813;BME280;35706;52.100;5.056;2023-02-03T05:54:05;102461.34;;;9.23;88.89
49813;BME280;35706;52.100;5.056;2023-02-03T05:55:06;102463.03;;;9.24;88.78
49813;BME280;35706;52.100;5.056;2023-02-03T05:56:06;102458.81;;;9.21;88.98
49813;BME280;35706;52.100;5.056;2023-02-03T05:57:07;102466.69;;;9.21;88.85